Venus Seven — H9RN — position and weather

sailwx.info

Track history (hours):
 
Tides and Currents Weather Stations Pressure Air Temp Water Temp Dewpoint Dewpoint Depression Visibility Wind Speed Wind Dir Waves Ship Positions

Venus Seven

Last reported at 2016-Sep-23 13:33 UTC. Time now 2016-Sep-25 07:13 UTC.
Position N 22°38' E 120°13'.

Length 93 m; draft 5.2 m.

Type: Cargo ship. MMSI: 353405000.

Date/timePositionNaut miles runAvg speedWind from/ knotsBaromVisibWave heightAir tempDewpointWater temp
2016-Sep-23 13:33N 22°38' E 120°13'5 1.1
2016-Sep-23 09:28N 22°36' E 120°18'0 0.0
2016-Sep-23 06:28N 22°36' E 120°18'0 0.0
2016-Sep-23 04:33N 22°36' E 120°18'0 0.0
2016-Sep-23 03:33N 22°36' E 120°18'0 0.0
2016-Sep-23 02:33N 22°36' E 120°18'4 4.0
2016-Sep-23 01:33N 22°37' E 120°14'4 4.0
2016-Sep-23 00:31N 22°40' E 120°10'1212.5
2016-Sep-22 23:33N 22°49' E 120°02'  
2016-Sep-17 13:33N 34°36' E 135°02'12 0.4
2016-Sep-16 07:33N 34°36' E 135°17'7 1.7
2016-Sep-16 03:32N 34°38' E 135°25'0 0.0
2016-Sep-16 02:20N 34°38' E 135°25'0 0.0
2016-Sep-16 00:26N 34°38' E 135°25'0 0.0
2016-Sep-15 22:32N 34°38' E 135°25'0 0.0
2016-Sep-15 21:32N 34°38' E 135°25'0 0.0
2016-Sep-15 20:26N 34°38' E 135°25'0 0.0
2016-Sep-15 18:32N 34°38' E 135°25'0 0.0
2016-Sep-15 12:32N 34°38' E 135°25'0 0.0
2016-Sep-15 11:26N 34°38' E 135°25'0 0.0
2016-Sep-15 04:25N 34°38' E 135°25'0 0.0
2016-Sep-15 03:31N 34°38' E 135°25'0 0.0
2016-Sep-15 01:31N 34°38' E 135°25'3110.5
2016-Sep-14 22:32N 34°15' E 134°60'1413.8
2016-Sep-14 21:30N 34°00' E 135°00'  
Track history (hours):
 
Tides and Currents Weather Stations Pressure Air Temp Water Temp Dewpoint Dewpoint Depression Visibility Wind Speed Wind Dir Waves Ship Positions

Venus Seven

Last reported at 2016-Sep-23 13:33 UTC. Time now 2016-Sep-25 07:13 UTC.
Position N 22°38' E 120°13'.

Length 93 m; draft 5.2 m.

Type: Cargo ship. MMSI: 353405000.

Date/timePositionNaut miles runAvg speedWind from/ knotsBaromVisibWave heightAir tempDewpointWater temp
2016-Sep-23 13:33N 22°38' E 120°13'5 1.1
2016-Sep-23 09:28N 22°36' E 120°18'0 0.0
2016-Sep-23 06:28N 22°36' E 120°18'0 0.0
2016-Sep-23 04:33N 22°36' E 120°18'0 0.0
2016-Sep-23 03:33N 22°36' E 120°18'0 0.0
2016-Sep-23 02:33N 22°36' E 120°18'4 4.0
2016-Sep-23 01:33N 22°37' E 120°14'4 4.0
2016-Sep-23 00:31N 22°40' E 120°10'1212.5
2016-Sep-22 23:33N 22°49' E 120°02'  
2016-Sep-17 13:33N 34°36' E 135°02'12 0.4
2016-Sep-16 07:33N 34°36' E 135°17'7 1.7
2016-Sep-16 03:32N 34°38' E 135°25'0 0.0
2016-Sep-16 02:20N 34°38' E 135°25'0 0.0
2016-Sep-16 00:26N 34°38' E 135°25'0 0.0
2016-Sep-15 22:32N 34°38' E 135°25'0 0.0
2016-Sep-15 21:32N 34°38' E 135°25'0 0.0
2016-Sep-15 20:26N 34°38' E 135°25'0 0.0
2016-Sep-15 18:32N 34°38' E 135°25'0 0.0
2016-Sep-15 12:32N 34°38' E 135°25'0 0.0
2016-Sep-15 11:26N 34°38' E 135°25'0 0.0
2016-Sep-15 04:25N 34°38' E 135°25'0 0.0
2016-Sep-15 03:31N 34°38' E 135°25'0 0.0
2016-Sep-15 01:31N 34°38' E 135°25'3110.5
2016-Sep-14 22:32N 34°15' E 134°60'1413.8
2016-Sep-14 21:30N 34°00' E 135°00'  

Dump ship's entire track history